Time;durP1;ratioP1;P1;durP2;ratioP2;P2;SDS_P1;SDS_P2;PMS_P1;PMS_P2;Temp;Humidity;BMP_temperature;BMP_pressure;BME280_temperature;BME280_humidity;BME280_pressure;Samples;Min_cycle;Max_cycle;Signal;HPM_P1;HPM_P2
2022/07/05 00:02:16;;;;;;;2.30;1.20;;;20.50;63.10;;;;;;5050286;28;20998;-80
2022/07/05 00:04:42;;;;;;;2.43;1.10;;;20.50;63.60;;;;;;5051966;28;20623;-80
2022/07/05 00:07:17;;;;;;;2.37;1.30;;;20.40;64.10;;;;;;5054161;28;20622;-74
2022/07/05 00:09:51;;;;;;;1.70;1.23;;;20.40;64.60;;;;;;5049963;28;20657;-74
2022/07/05 00:12:18;;;;;;;2.43;1.20;;;20.40;65.50;;;;;;5049700;28;20610;-74
2022/07/05 00:14:44;;;;;;;2.70;1.40;;;20.30;65.80;;;;;;5050511;28;20641;-74
2022/07/05 00:17:11;;;;;;;3.77;2.10;;;20.30;66.50;;;;;;5051540;28;20591;-74
2022/07/05 00:19:38;;;;;;;1.90;1.10;;;20.30;67.30;;;;;;5050157;28;20570;-74
2022/07/05 00:22:04;;;;;;;3.03;1.23;;;20.20;67.80;;;;;;5057300;28;20586;-75
2022/07/05 00:24:30;;;;;;;3.63;1.20;;;20.20;68.30;;;;;;5050161;28;21006;-76
2022/07/05 00:26:55;;;;;;;3.20;1.10;;;20.20;69.30;;;;;;5033644;28;20615;-74
2022/07/05 00:29:21;;;;;;;3.10;2.10;;;20.10;69.90;;;;;;5051810;28;20563;-75
2022/07/05 00:31:47;;;;;;;2.07;1.17;;;20.10;70.50;;;;;;5032984;28;20248;-75
2022/07/05 00:34:13;;;;;;;2.93;1.40;;;20.10;71.40;;;;;;5033900;28;20980;-75
2022/07/05 00:36:40;;;;;;;2.47;1.60;;;20.00;72.10;;;;;;5051280;28;20637;-75
2022/07/05 00:39:06;;;;;;;4.07;1.00;;;20.00;73.20;;;;;;5050080;28;20625;-75
2022/07/05 00:41:32;;;;;;;1.97;1.20;;;19.90;74.20;;;;;;5050601;28;20567;-75
2022/07/05 00:44:03;;;;;;;2.90;1.50;;;19.90;75.00;;;;;;5051387;28;20726;-75
2022/07/05 00:46:30;;;;;;;2.33;1.27;;;19.80;75.50;;;;;;5033525;28;20599;-75
2022/07/05 00:48:57;;;;;;;2.10;1.20;;;19.80;76.50;;;;;;5050115;28;21091;-75
2022/07/05 00:51:24;;;;;;;1.97;1.50;;;19.70;77.10;;;;;;5049464;28;20957;-75
2022/07/05 00:53:50;;;;;;;2.87;1.50;;;19.70;78.50;;;;;;5051187;28;20570;-75
2022/07/05 00:56:19;;;;;;;2.50;1.20;;;19.70;79.00;;;;;;5050005;28;20572;-75
2022/07/05 00:58:45;;;;;;;3.43;1.00;;;19.60;80.00;;;;;;5038073;28;21110;-76
2022/07/05 01:01:11;;;;;;;3.37;1.83;;;19.60;80.60;;;;;;5049228;28;20667;-75
2022/07/05 01:03:38;;;;;;;1.90;1.27;;;19.60;81.20;;;;;;5051144;28;20683;-75
2022/07/05 01:06:09;;;;;;;1.73;1.03;;;19.60;82.20;;;;;;5038597;28;20679;-75
2022/07/05 01:08:38;;;;;;;2.87;1.10;;;19.50;83.20;;;;;;5029848;28;20600;-75
2022/07/05 01:11:05;;;;;;;2.13;1.20;;;19.50;83.70;;;;;;5012720;28;21349;-75
2022/07/05 01:13:31;;;;;;;1.73;1.13;;;19.50;84.10;;;;;;5030004;28;20580;-76
2022/07/05 01:15:57;;;;;;;4.27;1.50;;;19.40;84.60;;;;;;5031159;28;20663;-75
2022/07/05 01:18:23;;;;;;;2.17;1.40;;;19.40;85.60;;;;;;5029925;28;20585;-75
2022/07/05 01:20:50;;;;;;;3.70;1.70;;;19.40;86.20;;;;;;5030356;28;20584;-80
2022/07/05 01:23:19;;;;;;;3.13;1.20;;;19.30;86.80;;;;;;5030030;28;20682;-80
2022/07/05 01:25:47;;;;;;;2.37;1.00;;;19.30;87.80;;;;;;5033225;28;20576;-80
2022/07/05 01:28:13;;;;;;;2.80;1.57;;;19.30;88.00;;;;;;5033758;28;20711;-80
2022/07/05 01:30:41;;;;;;;4.00;1.83;;;19.20;88.60;;;;;;5033298;28;20577;-80
2022/07/05 01:33:07;;;;;;;2.57;1.53;;;19.20;89.70;;;;;;5034965;28;20576;-80
2022/07/05 01:35:34;;;;;;;2.00;1.50;;;19.20;90.00;;;;;;5038638;28;20675;-80
2022/07/05 01:38:02;;;;;;;2.13;1.60;;;19.20;90.40;;;;;;5035034;28;20662;-76
2022/07/05 01:40:28;;;;;;;2.40;1.20;;;19.20;90.60;;;;;;5017296;28;20584;-75
2022/07/05 01:42:54;;;;;;;2.60;1.43;;;19.10;90.80;;;;;;5033327;28;20576;-75
2022/07/05 01:48:07;;;;;;;3.50;1.77;;;19.10;91.50;;;;;;5034463;28;21167;-74
2022/07/05 01:50:44;;;;;;;3.27;1.30;;;19.10;91.70;;;;;;5032289;28;20580;-75
2022/07/05 01:53:19;;;;;;;2.10;1.33;;;19.00;92.10;;;;;;5033369;28;20571;-75
2022/07/05 01:55:46;;;;;;;2.37;1.40;;;19.00;92.30;;;;;;5033184;28;20667;-75
2022/07/05 01:58:12;;;;;;;4.00;1.30;;;19.00;92.20;;;;;;5016520;28;20603;-75
2022/07/05 02:00:43;;;;;;;10.07;2.90;;;18.90;92.60;;;;;;5032418;28;20576;-74
2022/07/05 02:03:10;;;;;;;1.80;1.27;;;18.90;93.20;;;;;;5047919;28;20731;-74
2022/07/05 02:05:36;;;;;;;3.43;1.40;;;18.90;93.00;;;;;;5033107;28;20584;-75
2022/07/05 02:08:02;;;;;;;3.07;1.30;;;18.90;93.30;;;;;;5034822;28;20580;-75
2022/07/05 02:10:28;;;;;;;2.60;1.40;;;18.80;93.50;;;;;;5032445;28;20567;-74
2022/07/05 02:12:54;;;;;;;2.50;1.27;;;18.80;93.70;;;;;;5034325;28;20162;-75
2022/07/05 02:15:19;;;;;;;4.23;1.37;;;18.80;93.90;;;;;;5037432;28;20177;-75
2022/07/05 02:17:46;;;;;;;2.30;1.30;;;18.80;94.10;;;;;;5032047;28;20182;-75
2022/07/05 02:20:12;;;;;;;3.43;1.27;;;18.70;94.30;;;;;;5032577;28;20671;-75
2022/07/05 02:22:38;;;;;;;2.10;1.40;;;18.70;94.50;;;;;;5016071;28;20575;-80
2022/07/05 02:25:05;;;;;;;3.30;1.53;;;18.70;94.60;;;;;;5016400;28;20616;-80
2022/07/05 02:27:31;;;;;;;2.73;1.50;;;18.70;94.90;;;;;;5032530;28;20992;-79
2022/07/05 02:29:57;;;;;;;3.57;1.83;;;18.70;95.10;;;;;;5032463;28;20564;-80
2022/07/05 02:32:32;;;;;;;3.20;1.70;;;18.70;95.30;;;;;;5032185;28;20166;-78
2022/07/05 02:34:59;;;;;;;3.30;1.40;;;18.60;95.40;;;;;;5032126;28;20564;-80
2022/07/05 02:37:27;;;;;;;3.17;1.50;;;18.60;95.80;;;;;;5032391;28;20695;-80
2022/07/05 02:39:52;;;;;;;3.20;1.30;;;18.60;96.00;;;;;;5033375;28;20560;-80
2022/07/05 02:42:18;;;;;;;4.43;1.40;;;18.70;96.30;;;;;;5032894;28;20972;-80
2022/07/05 02:44:44;;;;;;;2.70;1.27;;;18.70;96.60;;;;;;4999612;28;20237;-80
2022/07/05 02:47:10;;;;;;;3.83;1.40;;;18.70;96.60;;;;;;5032288;28;20999;-80
2022/07/05 02:49:37;;;;;;;5.03;0.93;;;18.70;96.70;;;;;;5016371;28;20169;-80
2022/07/05 02:52:05;;;;;;;2.80;2.17;;;18.80;96.80;;;;;;5035533;28;20622;-79
2022/07/05 02:54:31;;;;;;;2.80;1.43;;;18.80;96.90;;;;;;5015625;28;20577;-80
2022/07/05 02:56:57;;;;;;;2.17;1.37;;;18.80;97.00;;;;;;5031806;28;20661;-80
2022/07/05 02:59:25;;;;;;;2.10;1.30;;;18.90;97.10;;;;;;5032167;28;20584;-80
2022/07/05 03:01:51;;;;;;;2.20;1.10;;;18.90;97.20;;;;;;5014341;28;20572;-80
2022/07/05 03:04:18;;;;;;;3.30;1.70;;;18.80;97.40;;;;;;5015425;28;20624;-80
2022/07/05 03:06:50;;;;;;;2.03;1.50;;;18.80;97.40;;;;;;5031885;28;20946;-80
2022/07/05 03:09:17;;;;;;;3.67;1.73;;;18.80;97.40;;;;;;5032035;28;20972;-80
2022/07/05 03:11:44;;;;;;;3.50;1.10;;;18.80;97.60;;;;;;5030811;28;20685;-80
2022/07/05 03:14:09;;;;;;;2.00;1.10;;;18.80;97.60;;;;;;5015074;28;20627;-79
2022/07/05 03:16:35;;;;;;;1.83;1.10;;;18.70;97.70;;;;;;5032895;28;20197;-79
2022/07/05 03:19:01;;;;;;;1.63;1.13;;;18.70;97.90;;;;;;5031671;28;20267;-79
2022/07/05 03:21:27;;;;;;;2.80;1.60;;;18.70;98.00;;;;;;5030832;28;20170;-73
2022/07/05 03:23:53;;;;;;;3.77;1.90;;;18.70;98.20;;;;;;5015025;28;20723;-73
2022/07/05 03:26:19;;;;;;;2.30;1.30;;;18.70;98.40;;;;;;5032490;28;20612;-74
2022/07/05 03:28:45;;;;;;;2.70;1.37;;;18.80;98.50;;;;;;5034717;28;20572;-74
2022/07/05 03:31:12;;;;;;;3.13;1.30;;;18.80;98.60;;;;;;5030439;28;20575;-74
2022/07/05 03:33:41;;;;;;;2.43;1.50;;;18.80;98.70;;;;;;5031100;28;20572;-75
2022/07/05 03:36:09;;;;;;;3.00;1.37;;;18.90;98.80;;;;;;5030872;28;20584;-74
2022/07/05 03:38:36;;;;;;;2.33;1.23;;;18.90;98.70;;;;;;5030932;28;20588;-74
2022/07/05 03:41:02;;;;;;;3.00;2.00;;;18.90;98.80;;;;;;5030464;28;20572;-74
2022/07/05 03:43:28;;;;;;;4.47;1.77;;;18.90;98.80;;;;;;5032324;28;20608;-75
2022/07/05 03:45:55;;;;;;;3.53;1.27;;;18.90;98.80;;;;;;5030996;28;20576;-74
2022/07/05 03:48:22;;;;;;;2.77;1.30;;;18.90;98.80;;;;;;5030202;28;20588;-75
2022/07/05 03:50:49;;;;;;;2.27;1.43;;;18.90;99.00;;;;;;5030103;28;20569;-75
2022/07/05 03:53:16;;;;;;;4.17;1.90;;;18.80;99.10;;;;;;5030955;28;20579;-74
2022/07/05 03:55:43;;;;;;;5.00;2.47;;;18.90;99.40;;;;;;5030851;28;20959;-75
2022/07/05 03:58:09;;;;;;;4.30;2.00;;;18.80;99.40;;;;;;5030439;28;20600;-74
2022/07/05 04:00:35;;;;;;;3.93;2.43;;;18.80;99.50;;;;;;5031487;28;20622;-75
2022/07/05 04:03:05;;;;;;;2.83;1.77;;;18.80;99.50;;;;;;5030821;28;20584;-75
2022/07/05 04:05:31;;;;;;;4.00;1.90;;;18.90;99.70;;;;;;5034205;28;20580;-74
2022/07/05 04:07:58;;;;;;;2.60;1.80;;;18.80;99.70;;;;;;5030702;28;20949;-75
2022/07/05 04:10:30;;;;;;;3.30;2.20;;;18.90;99.80;;;;;;5030111;28;20584;-74
2022/07/05 04:12:56;;;;;;;2.73;1.80;;;18.80;99.70;;;;;;5014298;28;20569;-75
2022/07/05 04:15:24;;;;;;;4.00;2.03;;;18.80;99.90;;;;;;5030461;28;20186;-74
2022/07/05 04:17:53;;;;;;;4.60;1.93;;;18.80;99.90;;;;;;5030320;28;20684;-74
2022/07/05 04:20:21;;;;;;;2.87;1.90;;;18.90;99.90;;;;;;5029918;28;20668;-74
2022/07/05 04:22:48;;;;;;;3.03;1.93;;;18.90;99.90;;;;;;5029809;28;20668;-76
2022/07/05 04:25:18;;;;;;;3.33;2.37;;;19.00;99.90;;;;;;5030150;28;20572;-76
2022/07/05 04:27:54;;;;;;;3.53;1.77;;;19.00;99.90;;;;;;5030064;28;20682;-76
2022/07/05 04:30:24;;;;;;;3.30;1.97;;;19.10;99.90;;;;;;5030108;28;20568;-75
2022/07/05 04:32:52;;;;;;;4.23;1.90;;;19.20;99.90;;;;;;5030388;28;20977;-75
2022/07/05 04:35:18;;;;;;;2.50;1.47;;;19.20;99.90;;;;;;5030255;28;20576;-75
2022/07/05 04:37:47;;;;;;;2.50;1.40;;;19.20;99.90;;;;;;5030456;28;20592;-75
2022/07/05 04:40:14;;;;;;;3.17;2.03;;;19.30;99.90;;;;;;5032073;28;20568;-75
2022/07/05 04:42:41;;;;;;;2.57;1.80;;;19.30;99.90;;;;;;5031417;28;21178;-76
2022/07/05 04:45:09;;;;;;;3.30;1.60;;;19.40;99.90;;;;;;5013915;28;21003;-75
2022/07/05 04:47:36;;;;;;;2.93;1.80;;;19.40;99.90;;;;;;5031451;28;20627;-75
2022/07/05 04:50:04;;;;;;;2.27;1.63;;;19.50;99.90;;;;;;5049340;22;21351;-78
2022/07/05 04:52:30;;;;;;;3.20;1.40;;;19.60;99.90;;;;;;5009480;28;20581;-76
2022/07/05 04:54:56;;;;;;;2.73;1.73;;;19.70;99.90;;;;;;5028704;28;20704;-76
2022/07/05 04:57:22;;;;;;;3.07;1.80;;;19.70;99.90;;;;;;5011123;28;20659;-78
2022/07/05 04:59:47;;;;;;;2.10;1.50;;;19.80;99.90;;;;;;5014374;28;20190;-77
2022/07/05 05:02:13;;;;;;;3.37;1.73;;;19.80;99.90;;;;;;5014985;28;20217;-76
2022/07/05 05:04:39;;;;;;;3.43;1.50;;;19.90;99.90;;;;;;5015494;28;20584;-76
2022/07/05 05:07:05;;;;;;;2.80;1.60;;;20.00;99.90;;;;;;5014174;28;20166;-77
2022/07/05 05:09:31;;;;;;;2.83;1.17;;;20.00;99.90;;;;;;5015259;28;20190;-77
2022/07/05 05:11:56;;;;;;;2.00;1.13;;;20.00;99.90;;;;;;5014300;28;20938;-77
2022/07/05 05:14:22;;;;;;;3.00;1.57;;;20.00;99.90;;;;;;5014246;28;20179;-77
2022/07/05 05:16:48;;;;;;;2.80;1.30;;;20.10;99.90;;;;;;5015417;28;20207;-77
2022/07/05 05:19:14;;;;;;;5.67;1.60;;;20.20;99.90;;;;;;5014958;28;20170;-79
2022/07/05 05:21:39;;;;;;;3.77;1.43;;;20.20;99.90;;;;;;5011607;28;20565;-77
2022/07/05 05:24:06;;;;;;;2.17;1.13;;;20.40;99.90;;;;;;5013465;28;20194;-77
2022/07/05 05:26:32;;;;;;;3.10;1.53;;;20.50;99.90;;;;;;5012116;28;20159;-77
2022/07/05 05:28:57;;;;;;;2.30;1.60;;;20.50;99.90;;;;;;5012344;28;20565;-78
2022/07/05 05:31:23;;;;;;;2.43;1.30;;;20.60;99.90;;;;;;5014442;28;20277;-77
2022/07/05 05:33:49;;;;;;;1.80;1.20;;;20.70;99.80;;;;;;5013188;28;20178;-77
2022/07/05 05:36:15;;;;;;;5.23;1.50;;;20.80;99.80;;;;;;5014649;28;20277;-77
2022/07/05 05:38:40;;;;;;;2.60;1.37;;;20.90;99.80;;;;;;5014691;28;20617;-76
2022/07/05 05:41:06;;;;;;;2.73;1.83;;;21.10;99.90;;;;;;5013782;28;20605;-77
2022/07/05 05:43:32;;;;;;;3.00;1.13;;;21.20;99.90;;;;;;5014934;28;20264;-76
2022/07/05 05:45:58;;;;;;;2.77;1.63;;;21.30;99.40;;;;;;5014836;28;20170;-76
2022/07/05 05:48:24;;;;;;;2.30;1.07;;;21.60;99.30;;;;;;5013387;28;20580;-76
2022/07/05 05:50:51;;;;;;;2.63;1.20;;;21.80;99.20;;;;;;5012192;28;20209;-77
2022/07/05 05:53:17;;;;;;;2.90;1.03;;;22.10;99.20;;;;;;5014364;28;20258;-77
2022/07/05 05:55:43;;;;;;;1.50;0.80;;;22.40;98.90;;;;;;5014309;28;20597;-76
2022/07/05 05:58:14;;;;;;;1.93;0.97;;;22.80;98.70;;;;;;5014602;28;20577;-76
2022/07/05 06:00:40;;;;;;;6.13;1.40;;;23.40;98.80;;;;;;5013610;28;21148;-76
2022/07/05 06:03:06;;;;;;;2.23;0.83;;;24.30;99.10;;;;;;4995424;28;20616;-77
2022/07/05 06:05:32;;;;;;;2.70;1.23;;;25.00;98.80;;;;;;5011738;28;20582;-76
2022/07/05 06:07:58;;;;;;;1.60;0.80;;;25.90;98.50;;;;;;5017172;28;20238;-76
2022/07/05 06:10:26;;;;;;;3.00;1.13;;;26.80;97.90;;;;;;5020506;28;20204;-76
2022/07/05 06:12:56;;;;;;;2.57;1.13;;;27.80;96.70;;;;;;5033599;28;20604;-77
2022/07/05 06:15:22;;;;;;;2.00;0.90;;;28.70;95.10;;;;;;5019392;28;20573;-76
2022/07/05 06:17:48;;;;;;;3.17;0.80;;;29.70;94.30;;;;;;5013562;28;20634;-77
2022/07/05 06:20:17;;;;;;;3.07;1.23;;;30.60;92.20;;;;;;5013787;28;20629;-76
2022/07/05 06:22:43;;;;;;;4.70;0.80;;;31.30;83.60;;;;;;5011852;28;20901;-77
2022/07/05 06:25:10;;;;;;;3.60;0.80;;;32.00;81.90;;;;;;5013751;28;21074;-76
2022/07/05 06:27:47;;;;;;;2.47;0.80;;;32.60;78.20;;;;;;5012991;28;20598;-77
2022/07/05 06:30:15;;;;;;;1.40;0.80;;;33.10;75.60;;;;;;5014894;28;20726;-77
2022/07/05 06:32:43;;;;;;;1.70;0.80;;;33.80;73.90;;;;;;5018544;28;20593;-78
2022/07/05 06:35:09;;;;;;;5.23;0.90;;;34.60;71.50;;;;;;5022096;28;20602;-77
2022/07/05 06:37:45;;;;;;;1.80;0.80;;;35.20;68.70;;;;;;5019833;28;20638;-79
2022/07/05 06:40:27;;;;;;;4.63;1.20;;;35.70;63.50;;;;;;4994194;28;20643;-77
2022/07/05 06:42:54;;;;;;;3.00;0.90;;;36.00;59.70;;;;;;5004939;28;20580;-76
2022/07/05 06:45:25;;;;;;;3.30;0.97;;;36.10;58.50;;;;;;5020271;28;20605;-78
2022/07/05 06:48:04;;;;;;;3.63;1.00;;;36.10;56.90;;;;;;4995011;28;20593;-77
2022/07/05 06:50:32;;;;;;;1.90;0.80;;;35.90;55.00;;;;;;4994393;28;20641;-77
2022/07/05 06:52:58;;;;;;;2.33;0.93;;;35.60;54.40;;;;;;4995143;28;20601;-76
2022/07/05 06:55:24;;;;;;;2.20;0.80;;;35.10;53.30;;;;;;4994478;28;20567;-76
2022/07/05 06:57:57;;;;;;;1.40;0.80;;;34.70;53.10;;;;;;4993656;28;20567;-77
2022/07/05 07:00:23;;;;;;;1.90;1.00;;;34.30;52.70;;;;;;4993341;28;20648;-77
2022/07/05 07:02:49;;;;;;;2.93;1.00;;;33.80;52.40;;;;;;4992087;28;21117;-77
2022/07/05 07:05:15;;;;;;;2.53;1.43;;;33.30;52.20;;;;;;5015584;28;20198;-77
2022/07/05 07:10:28;;;;;;;2.30;0.80;;;33.20;53.70;;;;;;4996383;28;20608;-77
2022/07/05 07:12:53;;;;;;;1.70;0.90;;;33.70;54.30;;;;;;5010062;28;20591;-76
2022/07/05 07:15:19;;;;;;;3.37;1.07;;;34.30;54.80;;;;;;5012266;28;20587;-77
2022/07/05 07:17:45;;;;;;;1.77;0.90;;;35.10;54.20;;;;;;5011557;28;20239;-78
2022/07/05 07:20:11;;;;;;;2.13;0.87;;;35.60;53.30;;;;;;5011027;28;20198;-78
2022/07/05 07:22:37;;;;;;;4.13;0.90;;;36.30;52.80;;;;;;5013069;28;20174;-78
2022/07/05 07:25:05;;;;;;;2.30;0.90;;;37.00;51.20;;;;;;5025141;28;20557;-79
2022/07/05 07:27:31;;;;;;;2.10;0.73;;;37.50;49.90;;;;;;5025660;28;20576;-79
2022/07/05 07:29:57;;;;;;;1.60;0.80;;;37.90;48.70;;;;;;5014335;28;20629;-78
2022/07/05 07:32:22;;;;;;;1.53;0.73;;;38.40;48.20;;;;;;5011677;28;20632;-78
2022/07/05 07:34:48;;;;;;;1.80;0.80;;;38.80;47.40;;;;;;5012225;28;20178;-78
2022/07/05 07:37:18;;;;;;;2.40;1.20;;;39.20;46.20;;;;;;5012029;28;20162;-78
2022/07/05 07:39:44;;;;;;;2.27;0.87;;;39.50;45.50;;;;;;5011450;28;20293;-77
2022/07/05 07:42:10;;;;;;;1.87;0.70;;;39.70;44.20;;;;;;5011316;28;20656;-78
2022/07/05 07:44:36;;;;;;;1.83;0.70;;;39.90;43.60;;;;;;5012064;28;20198;-78
2022/07/05 07:47:02;;;;;;;3.23;1.03;;;40.20;42.80;;;;;;5011896;28;20178;-78
2022/07/05 07:49:28;;;;;;;1.83;0.80;;;40.50;42.30;;;;;;5011246;28;20189;-78
2022/07/05 07:51:54;;;;;;;3.93;0.80;;;40.70;41.50;;;;;;5024947;28;20256;-78
2022/07/05 07:54:19;;;;;;;2.33;0.90;;;40.90;41.00;;;;;;5010635;28;20756;-79
2022/07/05 07:56:45;;;;;;;3.30;0.90;;;41.00;40.00;;;;;;5010119;28;20548;-79
2022/07/05 07:59:11;;;;;;;2.63;1.10;;;41.20;39.30;;;;;;5015560;28;20178;-78
2022/07/05 08:01:37;;;;;;;2.37;0.90;;;41.20;38.90;;;;;;5011046;28;21132;-78
2022/07/05 08:04:03;;;;;;;1.97;0.80;;;41.40;38.90;;;;;;5011543;28;20642;-78
2022/07/05 08:06:29;;;;;;;2.33;0.80;;;41.60;38.60;;;;;;5012124;28;20170;-72
2022/07/05 08:08:56;;;;;;;4.73;0.87;;;41.80;37.90;;;;;;5011536;28;20582;-71
2022/07/05 08:11:22;;;;;;;4.40;1.00;;;41.90;37.30;;;;;;5010587;28;20958;-71
2022/07/05 08:13:47;;;;;;;6.50;1.00;;;42.10;37.20;;;;;;5011022;28;20569;-71
2022/07/05 08:16:13;;;;;;;2.20;0.70;;;42.20;36.60;;;;;;5011743;28;20162;-71
2022/07/05 08:21:37;;;;;;;2.83;0.70;;;42.40;35.40;;;;;;5000920;28;20340;-72
2022/07/05 08:24:08;;;;;;;1.80;0.70;;;42.50;35.20;;;;;;5010827;28;20627;-72
2022/07/05 08:26:35;;;;;;;2.63;0.70;;;42.60;34.60;;;;;;5026786;28;20565;-71
2022/07/05 08:29:03;;;;;;;1.60;0.60;;;42.80;35.10;;;;;;5011241;28;20565;-71
2022/07/05 08:31:31;;;;;;;1.50;0.70;;;42.90;34.20;;;;;;5010432;28;20673;-72
2022/07/05 08:33:58;;;;;;;1.70;0.63;;;43.10;33.90;;;;;;5009324;28;21202;-71
2022/07/05 08:36:24;;;;;;;1.60;0.60;;;43.20;33.20;;;;;;5011267;28;20983;-72
2022/07/05 08:38:51;;;;;;;1.33;0.57;;;43.30;33.30;;;;;;5011065;28;20573;-71
2022/07/05 08:41:19;;;;;;;1.50;0.70;;;43.40;32.30;;;;;;5009173;28;20617;-72
2022/07/05 08:43:47;;;;;;;2.27;0.80;;;43.30;31.80;;;;;;5011242;28;20613;-72
2022/07/05 08:46:15;;;;;;;2.03;0.60;;;43.30;31.50;;;;;;5026445;28;20557;-72
2022/07/05 08:48:48;;;;;;;1.70;0.60;;;43.40;31.80;;;;;;5011130;28;20661;-72
2022/07/05 08:51:16;;;;;;;3.00;0.67;;;43.20;30.20;;;;;;5010183;28;20609;-72
2022/07/05 08:53:43;;;;;;;1.80;0.80;;;42.80;30.40;;;;;;5010050;28;20595;-73
2022/07/05 08:56:10;;;;;;;1.83;0.70;;;42.50;30.20;;;;;;5009606;28;20582;-72
2022/07/05 08:58:36;;;;;;;1.63;0.70;;;42.50;30.70;;;;;;5011297;28;20577;-72
2022/07/05 09:01:03;;;;;;;1.50;0.70;;;42.40;31.10;;;;;;5008388;28;20720;-73
2022/07/05 09:03:37;;;;;;;3.20;0.70;;;42.30;30.60;;;;;;5018994;28;20660;-72
2022/07/05 09:06:07;;;;;;;2.23;0.70;;;42.10;30.10;;;;;;5009374;28;20639;-72
2022/07/05 09:08:39;;;;;;;2.97;0.70;;;42.00;30.10;;;;;;5010006;28;20613;-72
2022/07/05 09:11:16;;;;;;;2.23;1.00;;;42.00;30.70;;;;;;5009489;28;20609;-71
2022/07/05 09:13:49;;;;;;;1.83;0.70;;;42.10;30.40;;;;;;5010983;28;20589;-72
2022/07/05 09:16:15;;;;;;;1.60;0.70;;;42.30;30.20;;;;;;5010680;28;20577;-72
2022/07/05 09:18:44;;;;;;;2.60;0.73;;;42.30;30.30;;;;;;5009719;28;20596;-72
2022/07/05 09:21:20;;;;;;;2.33;0.93;;;42.20;29.80;;;;;;4990588;28;20960;-72
2022/07/05 09:24:02;;;;;;;1.80;0.70;;;42.00;29.50;;;;;;5009592;28;20636;-72
2022/07/05 09:26:35;;;;;;;2.03;0.60;;;41.40;29.00;;;;;;5001689;28;20664;-73
2022/07/05 09:29:03;;;;;;;1.60;0.77;;;40.40;29.00;;;;;;5008321;28;20900;-72
2022/07/05 09:31:31;;;;;;;1.97;0.80;;;39.40;28.90;;;;;;5007809;28;20609;-73
2022/07/05 09:34:10;;;;;;;2.17;0.80;;;38.70;29.60;;;;;;5020002;28;20635;-73
2022/07/05 09:36:55;;;;;;;2.17;1.00;;;38.60;30.30;;;;;;5030394;28;20556;-71
2022/07/05 09:39:30;;;;;;;2.00;0.90;;;38.70;30.80;;;;;;5030465;28;20583;-72
2022/07/05 09:42:20;;;;;;;1.90;0.80;;;38.90;31.30;;;;;;5028281;28;20568;-72
2022/07/05 09:44:51;;;;;;;2.23;0.70;;;39.30;32.30;;;;;;5008098;28;21184;-72
2022/07/05 09:47:19;;;;;;;1.40;0.77;;;39.70;31.30;;;;;;5013887;28;20588;-71
2022/07/05 09:49:48;;;;;;;1.53;0.70;;;40.00;30.70;;;;;;5017914;28;20627;-72
2022/07/05 09:52:37;;;;;;;1.40;0.70;;;39.70;29.70;;;;;;5033341;28;20552;-72
2022/07/05 09:55:13;;;;;;;1.63;0.70;;;39.40;30.00;;;;;;5034089;28;20572;-72
2022/07/05 09:57:40;;;;;;;2.60;0.80;;;39.20;30.00;;;;;;5024136;28;20946;-72
2022/07/05 10:00:14;;;;;;;1.70;0.87;;;39.30;30.90;;;;;;5013529;28;21026;-72
2022/07/05 10:02:50;;;;;;;2.13;0.70;;;39.60;31.10;;;;;;5013258;28;20565;-72
2022/07/05 10:05:17;;;;;;;2.00;0.80;;;40.00;31.20;;;;;;5013823;28;20688;-72
2022/07/05 10:07:48;;;;;;;2.77;0.90;;;40.40;31.30;;;;;;5012576;28;20659;-72
2022/07/05 10:10:25;;;;;;;1.30;0.60;;;40.60;30.20;;;;;;5013516;28;21106;-72
2022/07/05 10:12:53;;;;;;;2.77;0.70;;;40.30;29.70;;;;;;5013743;28;20581;-72
2022/07/05 10:15:24;;;;;;;1.83;0.87;;;39.90;29.60;;;;;;5013111;28;20925;-72
2022/07/05 10:18:12;;;;;;;3.57;0.90;;;39.60;29.60;;;;;;5012064;28;20569;-72
2022/07/05 10:20:42;;;;;;;1.60;0.80;;;39.10;29.70;;;;;;5012572;28;20605;-71
2022/07/05 10:23:10;;;;;;;2.03;0.87;;;38.60;29.50;;;;;;5012820;28;20736;-72
2022/07/05 10:25:37;;;;;;;2.60;0.90;;;37.90;29.40;;;;;;5013232;28;20569;-73
2022/07/05 10:28:05;;;;;;;1.83;0.70;;;37.30;30.00;;;;;;5017735;28;20601;-73
2022/07/05 10:30:33;;;;;;;1.83;0.90;;;37.10;30.70;;;;;;5011998;28;20613;-72
2022/07/05 10:33:01;;;;;;;1.93;0.97;;;36.80;30.50;;;;;;5012304;28;20940;-72
2022/07/05 10:35:27;;;;;;;2.87;0.77;;;36.30;30.10;;;;;;5012617;28;20666;-71
2022/07/05 10:37:54;;;;;;;3.00;1.20;;;35.80;30.00;;;;;;4993354;28;20651;-72
2022/07/05 10:40:20;;;;;;;1.93;1.00;;;35.20;30.10;;;;;;4997858;28;20611;-73
2022/07/05 10:42:53;;;;;;;2.03;0.90;;;34.80;31.00;;;;;;5012404;28;20564;-72
2022/07/05 10:45:29;;;;;;;1.87;0.80;;;34.60;31.40;;;;;;5012674;28;20205;-73
2022/07/05 10:48:11;;;;;;;1.63;0.87;;;34.90;32.20;;;;;;5013099;28;21025;-73
2022/07/05 10:50:49;;;;;;;2.23;0.90;;;35.30;32.60;;;;;;5011827;28;20627;-72
2022/07/05 10:53:20;;;;;;;2.00;0.70;;;35.70;32.50;;;;;;5012736;28;20557;-72
2022/07/05 10:55:56;;;;;;;2.10;0.70;;;36.10;32.70;;;;;;5012889;28;20561;-72
2022/07/05 10:58:27;;;;;;;1.60;0.73;;;36.50;32.10;;;;;;5012725;28;20569;-72
2022/07/05 11:01:19;;;;;;;1.40;0.70;;;36.60;31.80;;;;;;5011963;28;20600;-71
2022/07/05 11:04:01;;;;;;;1.97;0.60;;;36.80;31.30;;;;;;5008281;28;20613;-72
2022/07/05 11:06:33;;;;;;;3.30;0.87;;;36.90;31.70;;;;;;5009667;28;20593;-72
2022/07/05 11:08:59;;;;;;;1.83;0.80;;;37.10;32.30;;;;;;5012662;28;20589;-72
2022/07/05 11:11:52;;;;;;;3.33;1.00;;;37.10;31.90;;;;;;5026398;28;20640;-72
2022/07/05 11:14:25;;;;;;;3.10;0.83;;;37.00;31.50;;;;;;5009984;28;20546;-72
2022/07/05 11:17:15;;;;;;;2.60;0.67;;;36.60;30.70;;;;;;5012640;28;20600;-71
2022/07/05 11:20:09;;;;;;;3.30;0.80;;;36.20;30.40;;;;;;5010958;28;20640;-72
2022/07/05 11:22:36;;;;;;;1.67;0.70;;;35.50;30.40;;;;;;5005125;28;20590;-72
2022/07/05 11:25:05;;;;;;;5.20;1.00;;;34.90;30.50;;;;;;5012290;28;20629;-72
2022/07/05 11:27:33;;;;;;;1.90;0.80;;;34.30;30.90;;;;;;5010520;28;20560;-73
2022/07/05 11:29:59;;;;;;;2.10;0.87;;;33.70;31.50;;;;;;5011769;28;21230;-73
2022/07/05 11:32:30;;;;;;;1.53;0.77;;;33.30;31.90;;;;;;5030129;28;20663;-72
2022/07/05 11:35:15;;;;;;;2.13;0.80;;;32.80;32.40;;;;;;5031934;28;20580;-72
2022/07/05 11:38:04;;;;;;;1.50;0.70;;;32.20;32.90;;;;;;5033078;28;21166;-72
2022/07/05 11:40:32;;;;;;;2.20;0.67;;;31.80;33.20;;;;;;5012066;28;20617;-72
2022/07/05 11:42:59;;;;;;;1.50;0.80;;;31.60;33.70;;;;;;5009715;28;20587;-77
2022/07/05 11:45:25;;;;;;;1.97;0.87;;;31.60;34.20;;;;;;5011034;28;20637;-76
2022/07/05 11:47:55;;;;;;;3.80;3.00;;;31.70;34.70;;;;;;5012145;28;20612;-76
2022/07/05 11:50:26;;;;;;;4.40;2.50;;;31.90;35.00;;;;;;5011637;28;20620;-76
2022/07/05 11:52:52;;;;;;;2.03;1.23;;;32.10;34.90;;;;;;5012251;28;20768;-77
2022/07/05 11:55:19;;;;;;;1.50;0.90;;;32.30;34.50;;;;;;5012106;28;21103;-77
2022/07/05 11:57:49;;;;;;;1.80;0.70;;;32.20;34.10;;;;;;5011918;28;20630;-77
2022/07/05 12:00:26;;;;;;;1.83;0.70;;;32.10;34.10;;;;;;5011531;28;20651;-77
2022/07/05 12:02:51;;;;;;;2.60;0.80;;;32.00;35.00;;;;;;5012779;28;20584;-78
2022/07/05 12:05:17;;;;;;;1.47;0.80;;;32.00;34.90;;;;;;5012826;28;21121;-77
2022/07/05 12:07:49;;;;;;;1.80;0.70;;;32.10;35.00;;;;;;5009484;28;20178;-77
2022/07/05 12:13:07;;;;;;;1.60;0.67;;;32.10;34.70;;;;;;5011474;28;21148;-78
2022/07/05 12:15:33;;;;;;;1.20;0.57;;;32.20;35.00;;;;;;5015326;28;20569;-77
2022/07/05 12:18:03;;;;;;;1.50;0.70;;;32.30;35.00;;;;;;5011542;28;20992;-77
2022/07/05 12:20:30;;;;;;;2.50;0.90;;;32.50;34.80;;;;;;5010646;28;20603;-77
2022/07/05 12:22:58;;;;;;;2.37;0.73;;;32.50;34.20;;;;;;5011484;28;20571;-77
2022/07/05 12:25:25;;;;;;;1.50;0.70;;;32.60;33.90;;;;;;5011565;28;20968;-77
2022/07/05 12:27:53;;;;;;;3.30;0.73;;;32.60;34.00;;;;;;5011125;28;20649;-76
2022/07/05 12:30:19;;;;;;;12.90;1.00;;;32.70;34.20;;;;;;5010043;28;20673;-77
2022/07/05 12:33:05;;;;;;;1.70;0.70;;;32.70;34.10;;;;;;5011275;28;20926;-78
2022/07/05 12:35:45;;;;;;;2.20;0.90;;;32.60;33.30;;;;;;5011228;28;20601;-77
2022/07/05 12:38:18;;;;;;;2.37;0.90;;;32.40;33.10;;;;;;5009331;28;21025;-77
2022/07/05 12:40:46;;;;;;;3.10;0.90;;;32.20;33.30;;;;;;5023916;28;20631;-77
2022/07/05 12:43:18;;;;;;;2.43;0.70;;;32.00;33.40;;;;;;5010688;28;20601;-77
2022/07/05 12:46:03;;;;;;;2.43;1.03;;;31.80;33.40;;;;;;4993689;28;20661;-78
2022/07/05 12:48:37;;;;;;;2.03;1.00;;;31.70;33.20;;;;;;5011333;28;20565;-77
2022/07/05 12:51:04;;;;;;;2.03;1.00;;;31.50;33.30;;;;;;5010611;28;21171;-77
2022/07/05 12:59:09;;;;;;;3.13;0.83;;;31.00;33.50;;;;;;5009624;28;21293;-77
2022/07/05 13:01:40;;;;;;;1.47;0.60;;;30.80;34.00;;;;;;5010334;28;20608;-78
2022/07/05 13:04:17;;;;;;;2.50;0.70;;;30.70;34.40;;;;;;5010708;28;20982;-78
2022/07/05 13:06:54;;;;;;;3.40;0.70;;;30.50;35.20;;;;;;5004026;28;20664;-77
2022/07/05 13:09:32;;;;;;;2.03;0.80;;;30.40;35.20;;;;;;5009923;28;20987;-78
2022/07/05 13:12:05;;;;;;;2.00;0.80;;;30.20;35.20;;;;;;5010154;28;20604;-78
2022/07/05 13:14:31;;;;;;;2.07;0.80;;;30.10;35.30;;;;;;5025965;28;20620;-78